Time;durP1;ratioP1;P1;durP2;ratioP2;P2;SDS_P1;SDS_P2;PMS_P1;PMS_P2;Temp;Humidity;BMP_temperature;BMP_pressure;BME280_temperature;BME280_humidity;BME280_pressure;Samples;Min_cycle;Max_cycle;Signal;HPM_P1;HPM_P2
2021/10/12 00:02:01;;;;;;;6.53;1.20;;;;;;;11.34;95.44;102642.81;5012189;28;20030;-74
2021/10/12 00:04:27;;;;;;;6.75;1.25;;;;;;;11.32;92.44;102633.94;5011666;28;20075;-74
2021/10/12 00:06:52;;;;;;;7.20;1.25;;;;;;;11.36;90.34;102634.97;5011871;28;20025;-73
2021/10/12 00:09:18;;;;;;;9.35;2.00;;;;;;;11.38;90.53;102630.66;5011739;28;20026;-73
2021/10/12 00:11:44;;;;;;;9.50;1.20;;;;;;;11.37;92.59;102635.03;5009824;28;20528;-74
2021/10/12 00:14:09;;;;;;;11.60;1.83;;;;;;;11.36;93.75;102633.22;5011278;28;20042;-74
2021/10/12 00:16:35;;;;;;;13.95;1.42;;;;;;;11.36;94.56;102632.34;5010869;28;20022;-74
2021/10/12 00:19:00;;;;;;;5.85;1.20;;;;;;;11.31;94.52;102634.75;5013357;28;20117;-73
2021/10/12 00:21:26;;;;;;;11.18;1.60;;;;;;;11.30;95.50;102635.63;5010210;28;20041;-73
2021/10/12 00:23:51;;;;;;;13.02;1.40;;;;;;;11.28;96.77;102639.91;5011784;28;20497;-74
2021/10/12 00:26:16;;;;;;;9.70;1.05;;;;;;;11.24;97.64;102636.22;5011934;28;20030;-74
2021/10/12 00:28:42;;;;;;;9.90;1.40;;;;;;;11.19;97.45;102634.25;5009260;28;20044;-74
2021/10/12 00:31:07;;;;;;;12.20;1.73;;;;;;;11.18;98.33;102637.69;5011637;28;20037;-74
2021/10/12 00:33:33;;;;;;;7.53;1.48;;;;;;;11.17;98.83;102631.53;5011334;28;20362;-74
2021/10/12 00:35:58;;;;;;;7.80;1.38;;;;;;;11.15;98.68;102635.88;5025072;28;21253;-74
2021/10/12 00:38:24;;;;;;;9.50;1.67;;;;;;;11.13;98.40;102630.50;5012214;28;20525;-74
2021/10/12 00:40:49;;;;;;;10.25;1.52;;;;;;;11.12;98.03;102630.44;5008325;28;20486;-74
2021/10/12 00:43:15;;;;;;;8.30;1.13;;;;;;;11.10;98.58;102629.50;5011347;28;20036;-74
2021/10/12 00:45:41;;;;;;;12.35;1.30;;;;;;;11.07;97.95;102629.34;5011758;28;20061;-75
2021/10/12 00:48:08;;;;;;;10.43;1.30;;;;;;;11.05;98.37;102625.75;5010752;28;20037;-74
2021/10/12 00:50:36;;;;;;;8.20;1.35;;;;;;;11.01;98.60;102629.97;5012600;28;20030;-74
2021/10/12 00:53:01;;;;;;;6.85;1.50;;;;;;;10.97;99.70;102630.66;5010059;28;20153;-74
2021/10/12 00:55:27;;;;;;;9.57;1.70;;;;;;;10.94;100.00;102623.53;5010454;28;20180;-75
2021/10/12 00:57:53;;;;;;;14.00;1.67;;;;;;;10.91;100.00;102622.53;5010642;28;20478;-75
2021/10/12 01:00:19;;;;;;;8.45;1.48;;;;;;;10.87;100.00;102617.94;5010447;28;20033;-74
2021/10/12 01:02:44;;;;;;;13.00;1.80;;;;;;;10.85;100.00;102604.72;5009986;28;20034;-74
2021/10/12 01:05:10;;;;;;;10.93;1.98;;;;;;;10.82;100.00;102603.69;5009626;28;20048;-74
2021/10/12 01:07:35;;;;;;;7.65;1.77;;;;;;;10.85;100.00;102601.16;5012249;28;20042;-75
2021/10/12 01:10:06;;;;;;;9.15;1.60;;;;;;;10.83;100.00;102592.31;5010663;28;20506;-75
2021/10/12 01:12:32;;;;;;;9.45;1.35;;;;;;;10.82;100.00;102585.25;5009542;28;20026;-74
2021/10/12 01:14:57;;;;;;;6.78;1.50;;;;;;;10.82;100.00;102585.25;5015626;28;20034;-74
2021/10/12 01:17:23;;;;;;;11.00;1.67;;;;;;;10.82;100.00;102574.72;5010116;28;20038;-74
2021/10/12 01:19:48;;;;;;;10.25;1.67;;;;;;;10.82;100.00;102582.59;5011466;28;20042;-74
2021/10/12 01:22:14;;;;;;;12.57;1.63;;;;;;;10.79;100.00;102570.22;5012211;28;20069;-74
2021/10/12 01:24:39;;;;;;;6.70;1.08;;;;;;;10.76;100.00;102556.91;5012223;28;20073;-75
2021/10/12 01:27:05;;;;;;;13.10;1.52;;;;;;;10.78;100.00;102553.53;5014979;28;20037;-74
2021/10/12 01:29:30;;;;;;;10.30;1.65;;;;;;;10.76;100.00;102549.00;5012445;28;20034;-74
2021/10/12 01:31:55;;;;;;;12.95;1.92;;;;;;;10.76;100.00;102544.63;5014170;28;20029;-75
2021/10/12 01:34:21;;;;;;;7.55;1.33;;;;;;;10.75;100.00;102547.22;5011999;28;20040;-74
2021/10/12 01:36:49;;;;;;;11.95;1.52;;;;;;;10.71;100.00;102530.38;5012506;28;20038;-74
2021/10/12 01:39:16;;;;;;;6.22;1.92;;;;;;;10.68;100.00;102530.25;5010022;28;20037;-74
2021/10/12 01:41:42;;;;;;;7.07;1.55;;;;;;;10.65;100.00;102527.50;5014351;28;20030;-74
2021/10/12 01:44:15;;;;;;;9.05;1.13;;;;;;;10.64;100.00;102517.78;5014798;28;20424;-74
2021/10/12 01:46:40;;;;;;;16.67;1.90;;;;;;;10.65;100.00;102514.31;5014784;28;20049;-74
2021/10/12 01:49:06;;;;;;;10.40;1.98;;;;;;;10.62;100.00;102504.56;5011883;28;20033;-74
2021/10/12 01:51:32;;;;;;;8.00;1.67;;;;;;;10.62;100.00;102514.16;5010111;28;20037;-74
2021/10/12 01:54:00;;;;;;;13.30;2.05;;;;;;;10.60;100.00;102510.59;5014511;28;20097;-74
2021/10/12 01:56:25;;;;;;;11.13;1.70;;;;;;;10.61;100.00;102504.50;5014042;28;20030;-74
2021/10/12 01:58:50;;;;;;;11.35;2.30;;;;;;;10.62;100.00;102514.16;5012058;28;20087;-74
2021/10/12 02:01:23;;;;;;;11.63;1.80;;;;;;;10.66;100.00;102500.31;5012037;28;20121;-74
2021/10/12 02:03:49;;;;;;;7.40;1.80;;;;;;;10.68;100.00;102500.41;4997104;28;20117;-75
2021/10/12 02:06:16;;;;;;;9.23;1.60;;;;;;;10.69;100.00;102494.28;5010926;28;20299;-73
2021/10/12 02:08:41;;;;;;;10.02;2.67;;;;;;;10.75;100.00;102490.16;5014203;28;20440;-74
2021/10/12 02:11:07;;;;;;;8.52;1.80;;;;;;;10.75;100.00;102482.25;5013716;28;20117;-73
2021/10/12 02:13:32;;;;;;;9.38;1.70;;;;;;;10.76;100.00;102476.19;5011987;28;20065;-73
2021/10/12 02:15:57;;;;;;;9.32;2.30;;;;;;;10.78;100.00;102473.59;5014315;28;20072;-74
2021/10/12 02:18:23;;;;;;;14.07;1.92;;;;;;;10.79;100.00;102471.03;5012287;28;20093;-74
2021/10/12 02:20:49;;;;;;;10.98;1.83;;;;;;;10.79;100.00;102465.75;5013419;28;20029;-74
2021/10/12 02:23:15;;;;;;;8.90;2.15;;;;;;;10.79;100.00;102465.75;5010300;28;20108;-74
2021/10/12 02:25:40;;;;;;;10.52;1.88;;;;;;;10.82;100.00;102446.56;5010570;28;20037;-74
2021/10/12 02:28:05;;;;;;;5.28;1.90;;;;;;;10.82;100.00;102448.31;5012148;28;20050;-74
2021/10/12 02:30:31;;;;;;;6.88;1.75;;;;;;;10.80;100.00;102449.13;5013748;28;20545;-75
2021/10/12 02:32:56;;;;;;;12.43;2.00;;;;;;;10.74;100.00;102464.69;5011660;28;20037;-74
2021/10/12 02:35:21;;;;;;;8.98;1.90;;;;;;;10.73;100.00;102464.59;5013103;28;20544;-74
2021/10/12 02:37:47;;;;;;;9.93;1.60;;;;;;;10.70;100.00;102475.94;5026783;28;20157;-74
2021/10/12 02:40:12;;;;;;;8.68;2.15;;;;;;;10.69;100.00;102474.13;5013437;28;20406;-74
2021/10/12 02:42:38;;;;;;;12.45;1.75;;;;;;;10.67;100.00;102457.34;5011773;28;20092;-74
2021/10/12 02:45:03;;;;;;;10.73;2.45;;;;;;;10.66;100.00;102437.13;5013420;28;20072;-74
2021/10/12 02:47:32;;;;;;;12.68;2.45;;;;;;;10.64;100.00;102444.06;5012334;28;20058;-74
2021/10/12 02:49:58;;;;;;;14.75;2.33;;;;;;;10.64;100.00;102433.53;5013148;28;20026;-74
2021/10/12 02:52:23;;;;;;;12.50;2.40;;;;;;;10.63;100.00;102437.91;5013309;28;20059;-72
2021/10/12 02:54:48;;;;;;;12.32;2.25;;;;;;;10.62;100.00;102436.09;5014658;28;20033;-73
2021/10/12 02:57:13;;;;;;;10.70;2.78;;;;;;;10.62;100.00;102430.84;5026795;28;20036;-73
2021/10/12 02:59:39;;;;;;;12.10;2.40;;;;;;;10.62;100.00;102417.69;5010498;28;20488;-73
2021/10/12 03:02:04;;;;;;;8.88;2.80;;;;;;;10.64;100.00;102415.09;5013211;28;20033;-74
2021/10/12 03:04:29;;;;;;;15.88;2.88;;;;;;;10.65;100.00;102414.28;5010574;28;20524;-74
2021/10/12 03:06:55;;;;;;;14.02;2.97;;;;;;;10.66;100.00;102413.44;5012757;28;20030;-74
2021/10/12 03:09:20;;;;;;;17.90;3.10;;;;;;;10.68;100.00;102405.63;5010993;28;20102;-74
2021/10/12 03:11:45;;;;;;;17.33;2.95;;;;;;;10.71;100.00;102397.84;5010814;28;20024;-74
2021/10/12 03:14:10;;;;;;;18.25;2.90;;;;;;;10.72;100.00;102395.25;5013690;28;20428;-73
2021/10/12 03:16:36;;;;;;;12.77;3.08;;;;;;;10.73;100.00;102406.69;5011892;28;20033;-74
2021/10/12 03:19:01;;;;;;;9.15;3.70;;;;;;;10.76;100.00;102397.19;5012426;28;20030;-74
2021/10/12 03:21:33;;;;;;;14.75;3.72;;;;;;;10.78;100.00;102384.06;5010006;28;20029;-75
2021/10/12 03:23:58;;;;;;;14.15;3.08;;;;;;;10.80;100.00;102383.31;5013290;28;20077;-75
2021/10/12 03:26:24;;;;;;;17.13;3.90;;;;;;;10.80;100.00;102377.16;5010148;28;20085;-75
2021/10/12 03:28:49;;;;;;;13.65;3.63;;;;;;;10.82;100.00;102375.47;5011578;28;20382;-75
2021/10/12 03:31:14;;;;;;;20.13;4.22;;;;;;;10.83;100.00;102371.13;5012190;28;20152;-75
2021/10/12 03:33:40;;;;;;;18.63;3.67;;;;;;;10.84;100.00;102367.63;5011193;28;20038;-75
2021/10/12 03:36:17;;;;;;;14.52;3.75;;;;;;;10.84;100.00;102365.00;5010362;28;20504;-75
2021/10/12 03:38:43;;;;;;;16.67;5.70;;;;;;;10.83;100.00;102365.84;5011838;28;20022;-75
2021/10/12 03:41:08;;;;;;;15.43;3.97;;;;;;;10.82;100.00;102364.94;5009395;28;20076;-75
2021/10/12 03:43:35;;;;;;;17.15;4.65;;;;;;;10.82;100.00;102366.69;5012333;28;20038;-75
2021/10/12 03:46:02;;;;;;;13.40;4.50;;;;;;;10.81;100.00;102355.22;5010812;28;20022;-74
2021/10/12 03:48:28;;;;;;;16.17;4.07;;;;;;;10.80;100.00;102346.44;5011844;28;20064;-74
2021/10/12 03:50:53;;;;;;;23.55;4.55;;;;;;;10.83;100.00;102350.06;5010626;28;20061;-74
2021/10/12 03:53:18;;;;;;;11.40;3.85;;;;;;;10.79;100.00;102357.81;5032160;28;20026;-74
2021/10/12 03:55:44;;;;;;;18.58;4.47;;;;;;;10.77;100.00;102355.94;5010623;28;20112;-74
2021/10/12 03:58:09;;;;;;;14.13;3.97;;;;;;;10.77;100.00;102346.31;5013204;28;20042;-73
2021/10/12 04:00:34;;;;;;;16.90;4.63;;;;;;;10.78;100.00;102332.34;5009547;28;20386;-74
2021/10/12 04:03:01;;;;;;;11.45;4.88;;;;;;;10.81;100.00;102334.16;5010411;28;20030;-74
2021/10/12 04:05:26;;;;;;;15.48;4.57;;;;;;;10.82;100.00;102337.72;5008265;28;20062;-74
2021/10/12 04:07:52;;;;;;;19.58;5.28;;;;;;;10.84;100.00;102341.28;5027914;28;20054;-74
2021/10/12 04:10:17;;;;;;;29.67;5.70;;;;;;;10.87;100.00;102320.38;5010360;28;20124;-75
2021/10/12 04:12:42;;;;;;;14.85;4.22;;;;;;;10.88;100.00;102311.59;5012704;28;20377;-75
2021/10/12 04:15:08;;;;;;;17.23;4.93;;;;;;;10.89;100.00;102314.31;5012079;28;20041;-75
2021/10/12 04:17:34;;;;;;;23.45;5.80;;;;;;;10.89;100.00;102310.78;5011108;28;20440;-75
2021/10/12 04:19:59;;;;;;;22.23;5.25;;;;;;;10.89;100.00;102302.88;5009767;28;20034;-74
2021/10/12 04:22:24;;;;;;;18.77;4.82;;;;;;;10.89;100.00;102309.06;5011972;28;20034;-75
2021/10/12 04:24:50;;;;;;;24.08;6.05;;;;;;;10.92;100.00;102314.44;5012362;28;20061;-75
2021/10/12 04:27:16;;;;;;;24.73;5.90;;;;;;;10.95;100.00;102305.75;5011970;28;20097;-74
2021/10/12 04:29:41;;;;;;;35.58;7.25;;;;;;;10.96;100.00;102297.03;5011966;28;20033;-75
2021/10/12 04:32:09;;;;;;;33.03;6.30;;;;;;;11.00;100.00;102298.00;5011154;28;20045;-74
2021/10/12 04:34:34;;;;;;;32.13;7.75;;;;;;;11.02;100.00;102299.88;5007629;28;20128;-74
2021/10/12 04:36:59;;;;;;;23.42;5.55;;;;;;;11.02;100.00;102297.25;5009438;28;20141;-74
2021/10/12 04:39:25;;;;;;;22.63;4.97;;;;;;;11.02;100.00;102288.44;5009565;28;20403;-74
2021/10/12 04:41:50;;;;;;;31.17;6.18;;;;;;;11.02;100.00;102288.44;5010281;28;20029;-74
2021/10/12 04:44:16;;;;;;;23.45;4.03;;;;;;;11.04;100.00;102290.31;5011222;28;20041;-74
2021/10/12 04:46:41;;;;;;;27.63;4.05;;;;;;;11.04;100.00;102286.75;5008296;28;20045;-74
2021/10/12 04:49:07;;;;;;;21.35;3.63;;;;;;;11.06;100.00;102285.97;5010014;28;20033;-74
2021/10/12 04:51:34;;;;;;;20.20;3.30;;;;;;;11.09;100.00;102286.09;5025370;28;20042;-74
2021/10/12 04:53:59;;;;;;;15.35;2.85;;;;;;;11.13;100.00;102276.56;5017296;28;20489;-74
2021/10/12 04:56:25;;;;;;;27.95;3.80;;;;;;;11.14;100.00;102268.72;5010338;28;20120;-74
2021/10/12 04:58:50;;;;;;;16.55;2.92;;;;;;;11.18;100.00;102268.81;5012686;28;20030;-74
2021/10/12 05:01:16;;;;;;;21.63;2.78;;;;;;;11.21;100.00;102268.97;5012219;28;20121;-74
2021/10/12 05:03:41;;;;;;;15.65;2.75;;;;;;;11.24;100.00;102279.59;5016033;28;20428;-74
2021/10/12 05:06:06;;;;;;;20.00;3.13;;;;;;;11.28;100.00;102277.13;5013818;28;20036;-74
2021/10/12 05:08:32;;;;;;;19.27;3.05;;;;;;;11.30;100.00;102266.66;5014736;28;20040;-74
2021/10/12 05:10:57;;;;;;;21.55;3.20;;;;;;;11.33;100.00;102263.22;5012610;28;20539;-74
2021/10/12 05:13:22;;;;;;;21.98;2.97;;;;;;;11.36;100.00;102264.25;5012622;28;20108;-75
2021/10/12 05:15:49;;;;;;;20.83;4.22;;;;;;;11.39;100.00;102268.72;5012468;28;20033;-74
2021/10/12 05:18:23;;;;;;;24.42;3.92;;;;;;;11.41;100.00;102252.13;5014455;28;20046;-74
2021/10/12 05:20:49;;;;;;;21.30;3.30;;;;;;;11.45;100.00;102264.56;5012121;28;20069;-74
2021/10/12 05:23:15;;;;;;;26.88;3.10;;;;;;;11.50;100.00;102253.31;5014461;28;20077;-74
2021/10/12 05:25:41;;;;;;;17.65;3.33;;;;;;;11.53;100.00;102261.31;5011803;28;20029;-74
2021/10/12 05:28:09;;;;;;;17.70;2.72;;;;;;;11.54;100.00;102255.19;5018838;28;20104;-76
2021/10/12 05:30:39;;;;;;;18.20;3.50;;;;;;;11.54;100.00;102255.19;5011202;28;20486;-74
2021/10/12 05:33:06;;;;;;;16.27;3.03;;;;;;;11.55;100.00;102257.00;5016753;28;20029;-74
2021/10/12 05:35:32;;;;;;;16.95;2.88;;;;;;;11.56;100.00;102245.63;5008463;28;20037;-72
2021/10/12 05:37:57;;;;;;;16.25;2.78;;;;;;;11.58;100.00;102244.81;5012865;28;20038;-74
2021/10/12 05:40:23;;;;;;;18.75;2.90;;;;;;;11.62;100.00;102240.53;5007628;28;20041;-73
2021/10/12 05:42:48;;;;;;;17.88;3.45;;;;;;;11.62;100.00;102240.53;5016097;28;20037;-74
2021/10/12 05:45:13;;;;;;;18.85;2.70;;;;;;;11.64;100.00;102233.59;5013381;28;20025;-73
2021/10/12 05:47:39;;;;;;;19.60;2.30;;;;;;;11.66;100.00;102231.00;5005808;28;20029;-73
2021/10/12 05:50:05;;;;;;;16.77;2.45;;;;;;;11.67;100.00;102231.06;5012519;28;20044;-73
2021/10/12 05:52:32;;;;;;;16.85;3.22;;;;;;;11.68;100.00;102229.31;5007810;28;20221;-72
2021/10/12 05:55:10;;;;;;;15.45;2.55;;;;;;;11.68;100.00;102224.94;5015247;28;20037;-74
2021/10/12 05:57:56;;;;;;;19.00;3.50;;;;;;;11.68;100.00;102222.31;5030948;28;20037;-73
2021/10/12 06:00:21;;;;;;;16.75;2.20;;;;;;;11.69;100.00;102221.44;5013972;28;20109;-73
2021/10/12 06:02:46;;;;;;;15.85;2.20;;;;;;;11.72;100.00;102220.66;5014625;28;20108;-74
2021/10/12 06:05:12;;;;;;;15.07;2.15;;;;;;;11.76;100.00;102218.19;5008654;28;20034;-73
2021/10/12 06:07:37;;;;;;;13.38;2.15;;;;;;;11.72;100.00;102221.56;5012358;28;20045;-73
2021/10/12 06:10:03;;;;;;;24.40;3.30;;;;;;;11.69;100.00;102221.44;5013660;28;20072;-74
2021/10/12 06:12:28;;;;;;;17.35;2.33;;;;;;;11.65;100.00;102219.53;5008888;28;20548;-73
2021/10/12 06:14:53;;;;;;;26.38;4.57;;;;;;;11.61;100.00;102222.91;5020139;28;20021;-73
2021/10/12 06:17:19;;;;;;;19.95;2.70;;;;;;;11.60;100.00;102215.88;5017140;28;20022;-74
2021/10/12 06:19:44;;;;;;;10.25;2.22;;;;;;;11.60;100.00;102215.88;5021906;28;20108;-74
2021/10/12 06:22:09;;;;;;;22.42;3.50;;;;;;;11.59;100.00;102214.97;5023418;28;20375;-70
2021/10/12 06:24:35;;;;;;;18.55;2.90;;;;;;;11.62;100.00;102222.09;5024385;28;20053;-73
2021/10/12 06:27:01;;;;;;;14.88;2.30;;;;;;;11.63;100.00;102211.59;5014341;28;20629;-72
2021/10/12 06:29:26;;;;;;;17.55;2.80;;;;;;;11.68;100.00;102211.75;5014968;28;20688;-73
2021/10/12 06:31:52;;;;;;;15.13;2.85;;;;;;;11.70;100.00;102217.97;5021309;28;20029;-73
2021/10/12 06:34:17;;;;;;;16.65;3.00;;;;;;;11.78;100.00;102205.06;5007051;28;20463;-73
2021/10/12 06:36:43;;;;;;;21.98;3.55;;;;;;;11.84;100.00;102209.63;5010729;28;20083;-73
2021/10/12 06:39:08;;;;;;;13.30;2.08;;;;;;;11.89;100.00;102202.78;5012317;28;20494;-74
2021/10/12 06:41:33;;;;;;;20.10;1.88;;;;;;;11.94;100.00;102207.38;5011907;28;20105;-73
2021/10/12 06:43:59;;;;;;;13.82;2.15;;;;;;;11.96;100.00;102202.16;5014812;28;20046;-73
2021/10/12 06:46:24;;;;;;;20.85;3.05;;;;;;;12.02;100.00;102210.28;5013430;28;20022;-74
2021/10/12 06:48:49;;;;;;;12.93;1.92;;;;;;;12.05;100.00;102205.09;5012968;28;20032;-74
2021/10/12 06:51:15;;;;;;;13.40;2.38;;;;;;;12.09;100.00;102201.72;5012868;28;20037;-73
2021/10/12 06:53:44;;;;;;;14.93;2.08;;;;;;;12.09;100.00;102206.97;5019254;28;20056;-74
2021/10/12 06:56:09;;;;;;;13.43;1.98;;;;;;;12.10;100.00;102210.50;5010512;28;20132;-74
2021/10/12 06:58:35;;;;;;;16.30;2.22;;;;;;;12.12;100.00;102212.34;5011777;28;20112;-73
2021/10/12 07:01:00;;;;;;;13.23;2.40;;;;;;;12.15;100.00;102216.84;5011936;28;20025;-73
2021/10/12 07:03:25;;;;;;;20.40;2.72;;;;;;;12.18;100.00;102219.59;5013068;28;20482;-73
2021/10/12 07:05:51;;;;;;;17.08;2.60;;;;;;;12.19;100.00;102207.28;5012038;28;20191;-74
2021/10/12 07:08:16;;;;;;;7.70;1.48;;;;;;;12.13;100.00;102211.50;5014134;28;20022;-74
2021/10/12 07:10:41;;;;;;;15.93;1.95;;;;;;;12.11;100.00;102213.22;5012977;28;20028;-76
2021/10/12 07:13:08;;;;;;;15.05;2.20;;;;;;;12.08;100.00;102207.81;5014088;28;20355;-76
2021/10/12 07:15:34;;;;;;;10.82;2.30;;;;;;;12.11;100.00;102214.94;5009281;28;20029;-77
2021/10/12 07:18:00;;;;;;;11.35;2.25;;;;;;;12.11;100.00;102221.13;5012954;28;20176;-76
2021/10/12 07:20:25;;;;;;;19.90;3.50;;;;;;;12.15;100.00;102206.28;5013198;28;20088;-75
2021/10/12 07:22:50;;;;;;;16.45;2.70;;;;;;;12.08;100.00;102210.47;5013016;28;20052;-75
2021/10/12 07:25:16;;;;;;;13.82;2.47;;;;;;;12.03;100.00;102206.81;5013849;28;20032;-76
2021/10/12 07:27:41;;;;;;;9.63;2.15;;;;;;;11.97;100.00;102198.69;5012123;28;20045;-74
2021/10/12 07:30:07;;;;;;;20.90;3.58;;;;;;;11.94;100.00;102195.91;5011983;28;20028;-75
2021/10/12 07:32:34;;;;;;;16.25;2.90;;;;;;;11.93;100.00;102197.63;5012741;28;20030;-75
2021/10/12 07:35:00;;;;;;;13.35;2.90;;;;;;;11.92;100.00;102187.03;5013187;28;20053;-74
2021/10/12 07:37:26;;;;;;;15.02;2.92;;;;;;;11.93;100.00;102191.47;5012313;28;20449;-75
2021/10/12 07:39:51;;;;;;;22.95;3.55;;;;;;;11.97;100.00;102190.75;5010467;28;20032;-75
2021/10/12 07:42:17;;;;;;;12.25;2.88;;;;;;;12.02;100.00;102194.44;5011412;28;20029;-76
2021/10/12 07:44:42;;;;;;;23.83;2.65;;;;;;;12.07;100.00;102198.16;5012298;28;20381;-76
2021/10/12 07:47:08;;;;;;;14.07;2.30;;;;;;;12.04;100.00;102174.28;5013523;28;20076;-75
2021/10/12 07:49:35;;;;;;;5.93;1.30;;;;;;;12.02;100.00;102183.91;5012620;28;20025;-77
2021/10/12 07:52:07;;;;;;;14.93;2.50;;;;;;;12.00;100.00;102171.50;5013628;28;20052;-77
2021/10/12 07:55:01;;;;;;;12.13;1.80;;;;;;;12.00;100.00;102172.38;5016066;28;20026;-76
2021/10/12 07:57:22;;;;;;;11.23;1.40;;;;;;;12.02;100.00;102178.63;5010338;28;20117;-73
2021/10/12 07:59:48;;;;;;;16.65;2.63;;;;;;;12.04;100.00;102166.34;5008378;28;20113;-74
2021/10/12 08:02:13;;;;;;;17.95;2.53;;;;;;;12.06;100.00;102169.97;5012658;28;20033;-74
2021/10/12 08:04:41;;;;;;;19.30;2.95;;;;;;;12.10;100.00;102170.94;5011702;28;20026;-75
2021/10/12 08:07:07;;;;;;;17.23;2.40;;;;;;;12.14;100.00;102164.94;5011560;28;20391;-75
2021/10/12 08:09:32;;;;;;;9.15;2.35;;;;;;;12.19;100.00;102167.69;5010683;28;20030;-75
2021/10/12 08:11:57;;;;;;;11.57;2.00;;;;;;;12.30;100.00;102179.47;5010097;28;20034;-74
2021/10/12 08:14:24;;;;;;;18.75;3.13;;;;;;;12.39;100.00;102173.59;5009747;28;20029;-74
2021/10/12 08:16:49;;;;;;;24.25;2.50;;;;;;;12.50;100.00;102176.56;5005946;28;20026;-74
2021/10/12 08:19:15;;;;;;;26.63;3.60;;;;;;;12.59;100.00;102163.66;5011177;28;20029;-74
2021/10/12 08:21:41;;;;;;;15.25;2.35;;;;;;;12.72;100.00;102157.84;5024468;28;20125;-74
2021/10/12 08:24:06;;;;;;;11.25;2.17;;;;;;;12.82;100.00;102154.63;5016109;28;20050;-74
2021/10/12 08:26:32;;;;;;;16.92;2.60;;;;;;;12.93;99.86;102151.41;5018611;28;20075;-74
2021/10/12 08:28:57;;;;;;;8.45;1.35;;;;;;;13.03;99.44;102147.25;5018175;28;20022;-74
2021/10/12 08:31:24;;;;;;;17.23;2.10;;;;;;;13.13;97.67;102144.91;5018065;28;20383;-74
2021/10/12 08:33:50;;;;;;;8.57;1.80;;;;;;;13.22;97.81;102144.25;5019009;28;20033;-74
2021/10/12 08:36:15;;;;;;;17.83;2.45;;;;;;;13.27;96.54;102136.47;5024331;28;20025;-74
2021/10/12 08:38:42;;;;;;;16.92;2.72;;;;;;;13.46;96.13;102143.16;5027659;28;20036;-74
2021/10/12 08:41:08;;;;;;;14.02;1.67;;;;;;;13.66;94.59;102138.38;5016803;28;20046;-74
2021/10/12 08:43:35;;;;;;;14.93;1.92;;;;;;;13.76;94.05;102136.84;5018436;28;20034;-74
2021/10/12 08:46:01;;;;;;;13.75;2.38;;;;;;;13.78;92.54;102140.41;5021451;28;20116;-74
2021/10/12 08:48:32;;;;;;;5.20;1.35;;;;;;;13.76;91.63;102136.84;5016837;28;20029;-74
2021/10/12 08:51:03;;;;;;;15.88;2.50;;;;;;;13.73;92.51;102144.72;5014832;28;20025;-73
2021/10/12 08:53:29;;;;;;;10.30;1.92;;;;;;;13.71;92.90;102152.56;5018245;28;20033;-73
2021/10/12 08:55:57;;;;;;;9.40;2.00;;;;;;;13.71;92.41;102144.63;5015178;28;20030;-74
2021/10/12 08:58:24;;;;;;;17.38;2.05;;;;;;;13.78;91.24;102140.41;5016438;28;20029;-73
2021/10/12 09:01:02;;;;;;;20.48;2.60;;;;;;;14.06;91.28;102131.34;5012001;28;20026;-74
2021/10/12 09:03:43;;;;;;;20.25;1.88;;;;;;;14.24;91.48;102129.97;4997260;28;20022;-73
2021/10/12 09:06:09;;;;;;;7.18;2.17;;;;;;;14.30;91.59;102130.13;5009868;28;20022;-74
2021/10/12 09:08:38;;;;;;;13.63;1.73;;;;;;;14.54;90.43;102126.22;5016501;28;20490;-73
2021/10/12 09:11:06;;;;;;;8.52;1.75;;;;;;;14.87;89.79;102117.16;5011813;28;20126;-74
2021/10/12 09:13:45;;;;;;;12.18;1.80;;;;;;;15.23;87.64;102110.78;5007481;28;20576;-74
2021/10/12 09:16:14;;;;;;;10.35;2.22;;;;;;;15.16;85.42;102100.03;5016373;28;20067;-74
2021/10/12 09:18:46;;;;;;;11.95;1.60;;;;;;;15.07;86.69;102115.81;5016306;28;20018;-73
2021/10/12 09:21:16;;;;;;;12.35;1.77;;;;;;;14.97;88.39;102104.13;5014702;28;20045;-73
2021/10/12 09:23:42;;;;;;;10.90;1.88;;;;;;;14.79;89.62;102115.28;5015887;28;20533;-74
2021/10/12 09:26:25;;;;;;;12.95;2.00;;;;;;;14.50;88.05;102112.00;5014985;28;20092;-73
2021/10/12 09:28:58;;;;;;;9.85;1.58;;;;;;;14.40;88.28;102123.28;5015963;28;20022;-73
2021/10/12 09:31:41;;;;;;;10.20;2.13;;;;;;;14.41;89.58;102112.72;5014398;28;20367;-72
2021/10/12 09:34:08;;;;;;;10.70;1.97;;;;;;;14.48;89.10;102114.63;5011717;28;20296;-72
2021/10/12 09:36:43;;;;;;;10.57;2.17;;;;;;;14.63;89.40;102124.66;5014386;28;20032;-72
2021/10/12 09:39:14;;;;;;;21.38;2.10;;;;;;;14.60;91.29;102129.00;5015102;28;20041;-73
2021/10/12 09:41:44;;;;;;;8.55;1.75;;;;;;;14.30;94.05;102130.13;5013874;28;20034;-73
2021/10/12 09:44:16;;;;;;;10.48;1.55;;;;;;;14.00;95.70;102129.47;5013608;28;20113;-73
2021/10/12 09:46:46;;;;;;;10.63;1.90;;;;;;;13.65;96.81;102128.63;5014386;28;20029;-74
2021/10/12 09:49:18;;;;;;;18.50;3.05;;;;;;;13.42;98.88;102130.72;5030566;28;20038;-73
2021/10/12 09:52:03;;;;;;;14.23;2.50;;;;;;;13.22;100.00;102127.50;5014355;28;20022;-72
2021/10/12 09:54:48;;;;;;;17.02;2.65;;;;;;;13.11;100.00;102148.38;5034030;28;20053;-73
2021/10/12 09:57:15;;;;;;;17.33;2.47;;;;;;;12.97;100.00;102148.00;5021868;28;20546;-72
2021/10/12 09:59:41;;;;;;;19.15;2.17;;;;;;;12.86;100.00;102152.97;5013642;28;20776;-73
2021/10/12 10:02:14;;;;;;;13.02;2.30;;;;;;;12.76;100.00;102143.00;5015300;28;20033;-73
2021/10/12 10:04:40;;;;;;;22.50;3.08;;;;;;;12.69;100.00;102157.75;5014597;28;20505;-73
2021/10/12 10:07:14;;;;;;;15.07;2.80;;;;;;;12.65;100.00;102150.59;5013312;28;20041;-74
2021/10/12 10:09:41;;;;;;;;;;;;;;;12.64;100.00;102138.25;5015263;28;20045;-73
2021/10/12 10:12:07;;;;;;;17.27;2.45;;;;;;;12.66;100.00;102139.19;5015023;28;19921;-73
2021/10/12 10:14:33;;;;;;;26.02;4.18;;;;;;;12.80;100.00;102140.50;5015410;28;20029;-73
2021/10/12 10:17:00;;;;;;;16.75;3.15;;;;;;;12.94;100.00;102137.31;5014211;28;20014;-73
2021/10/12 10:19:35;;;;;;;32.40;3.55;;;;;;;13.25;100.00;102138.16;5015469;28;20025;-73
2021/10/12 10:22:01;;;;;;;20.08;2.10;;;;;;;13.35;100.00;102124.34;5015382;28;20072;-73
2021/10/12 10:24:45;;;;;;;28.33;2.50;;;;;;;13.39;100.00;102114.75;5015118;28;20137;-74
2021/10/12 10:27:31;;;;;;;22.70;2.63;;;;;;;13.63;100.00;102115.38;5013604;28;20033;-74
2021/10/12 10:30:18;;;;;;;19.40;3.33;;;;;;;13.78;100.00;102114.84;5012710;28;20041;-73
2021/10/12 10:32:59;;;;;;;13.77;2.30;;;;;;;13.83;100.00;102113.19;4995434;28;20023;-73
2021/10/12 10:35:39;;;;;;;14.68;1.65;;;;;;;13.98;100.00;102117.97;5010339;28;20086;-74
2021/10/12 10:38:19;;;;;;;14.55;2.72;;;;;;;14.05;100.00;102113.69;5014557;28;20017;-74
2021/10/12 10:40:49;;;;;;;11.98;1.83;;;;;;;14.01;100.00;102114.47;5019141;28;20461;-73
2021/10/12 10:43:14;;;;;;;8.43;1.10;;;;;;;13.94;100.00;102112.56;5026408;28;20030;-72
2021/10/12 10:45:40;;;;;;;6.60;1.40;;;;;;;13.84;100.00;102108.81;5014813;28;20500;-73
2021/10/12 10:48:06;;;;;;;11.65;1.33;;;;;;;13.70;100.00;102111.13;5011600;28;20125;-73
2021/10/12 10:50:34;;;;;;;4.22;0.90;;;;;;;13.59;100.00;102109.97;5014034;28;20437;-73
2021/10/12 10:53:02;;;;;;;11.48;1.23;;;;;;;13.49;100.00;102109.72;5021883;28;20124;-72
2021/10/12 10:55:36;;;;;;;10.60;1.50;;;;;;;13.41;100.00;102115.69;5035899;28;20116;-71
2021/10/12 10:58:14;;;;;;;6.85;0.95;;;;;;;13.37;100.00;102121.75;5016037;28;20087;-71
2021/10/12 11:00:46;;;;;;;6.57;1.13;;;;;;;13.34;100.00;102122.53;5006608;28;20057;-72
2021/10/12 11:03:51;;;;;;;8.02;1.20;;;;;;;13.34;100.00;102119.91;5012555;28;20084;-73
2021/10/12 11:06:18;;;;;;;3.65;0.75;;;;;;;13.36;100.00;102120.88;4999538;28;20049;-73
2021/10/12 11:09:03;;;;;;;7.53;0.95;;;;;;;13.38;100.00;102124.44;5015775;28;20026;-72
2021/10/12 11:11:33;;;;;;;3.35;0.70;;;;;;;13.45;100.00;102122.84;5014809;28;20477;-72
2021/10/12 11:13:59;;;;;;;5.60;0.90;;;;;;;13.59;100.00;102120.53;5013660;28;20042;-72